sensor_id;sensor_type;location;lat;lon;timestamp;P1;durP1;ratioP1;P2;durP2;ratioP2
5821;SDS011;2937;48.562;8.022;2023-08-20T00:03:32;18.97;;;14.00;;
5821;SDS011;2937;48.562;8.022;2023-08-20T00:08:25;15.43;;;13.20;;
5821;SDS011;2937;48.562;8.022;2023-08-20T00:13:19;17.10;;;14.10;;
5821;SDS011;2937;48.562;8.022;2023-08-20T00:18:11;16.13;;;14.10;;
5821;SDS011;2937;48.562;8.022;2023-08-20T00:23:05;14.97;;;13.47;;
5821;SDS011;2937;48.562;8.022;2023-08-20T00:27:57;16.13;;;14.00;;
5821;SDS011;2937;48.562;8.022;2023-08-20T00:32:51;15.73;;;13.70;;
5821;SDS011;2937;48.562;8.022;2023-08-20T00:37:44;17.00;;;13.50;;
5821;SDS011;2937;48.562;8.022;2023-08-20T00:42:37;17.80;;;13.60;;
5821;SDS011;2937;48.562;8.022;2023-08-20T00:47:32;15.93;;;13.00;;
5821;SDS011;2937;48.562;8.022;2023-08-20T00:52:26;16.90;;;13.67;;
5821;SDS011;2937;48.562;8.022;2023-08-20T00:57:19;17.57;;;14.00;;
5821;SDS011;2937;48.562;8.022;2023-08-20T01:02:12;16.73;;;13.80;;
5821;SDS011;2937;48.562;8.022;2023-08-20T01:07:07;15.97;;;13.30;;
5821;SDS011;2937;48.562;8.022;2023-08-20T01:12:04;15.93;;;14.30;;
5821;SDS011;2937;48.562;8.022;2023-08-20T01:16:58;17.73;;;13.73;;
5821;SDS011;2937;48.562;8.022;2023-08-20T01:21:56;19.60;;;14.10;;
5821;SDS011;2937;48.562;8.022;2023-08-20T01:26:56;19.43;;;14.20;;
5821;SDS011;2937;48.562;8.022;2023-08-20T01:31:54;17.10;;;15.00;;
5821;SDS011;2937;48.562;8.022;2023-08-20T01:36:47;18.60;;;15.70;;
5821;SDS011;2937;48.562;8.022;2023-08-20T01:41:39;23.13;;;15.97;;
5821;SDS011;2937;48.562;8.022;2023-08-20T01:46:32;20.80;;;15.80;;
5821;SDS011;2937;48.562;8.022;2023-08-20T01:51:26;17.43;;;15.60;;
5821;SDS011;2937;48.562;8.022;2023-08-20T01:56:19;17.70;;;15.90;;
5821;SDS011;2937;48.562;8.022;2023-08-20T02:01:12;18.57;;;15.57;;
5821;SDS011;2937;48.562;8.022;2023-08-20T02:06:05;17.57;;;15.37;;
5821;SDS011;2937;48.562;8.022;2023-08-20T02:11:02;18.83;;;15.60;;
5821;SDS011;2937;48.562;8.022;2023-08-20T02:15:59;23.13;;;16.13;;
5821;SDS011;2937;48.562;8.022;2023-08-20T02:20:52;19.43;;;15.70;;
5821;SDS011;2937;48.562;8.022;2023-08-20T02:25:44;18.67;;;16.40;;
5821;SDS011;2937;48.562;8.022;2023-08-20T02:30:40;18.63;;;15.30;;
5821;SDS011;2937;48.562;8.022;2023-08-20T02:35:33;18.87;;;15.77;;
5821;SDS011;2937;48.562;8.022;2023-08-20T02:40:26;19.43;;;16.50;;
5821;SDS011;2937;48.562;8.022;2023-08-20T02:45:18;22.00;;;16.17;;
5821;SDS011;2937;48.562;8.022;2023-08-20T02:50:12;19.10;;;16.10;;
5821;SDS011;2937;48.562;8.022;2023-08-20T02:55:05;20.90;;;17.23;;
5821;SDS011;2937;48.562;8.022;2023-08-20T02:59:58;18.60;;;16.67;;
5821;SDS011;2937;48.562;8.022;2023-08-20T03:04:51;20.40;;;16.50;;
5821;SDS011;2937;48.562;8.022;2023-08-20T03:09:48;19.80;;;17.70;;
5821;SDS011;2937;48.562;8.022;2023-08-20T03:14:41;20.00;;;16.73;;
5821;SDS011;2937;48.562;8.022;2023-08-20T03:19:34;23.43;;;17.87;;
5821;SDS011;2937;48.562;8.022;2023-08-20T03:24:27;21.10;;;17.57;;
5821;SDS011;2937;48.562;8.022;2023-08-20T03:29:21;18.80;;;16.90;;
5821;SDS011;2937;48.562;8.022;2023-08-20T03:34:15;20.03;;;17.90;;
5821;SDS011;2937;48.562;8.022;2023-08-20T03:39:07;24.53;;;19.73;;
5821;SDS011;2937;48.562;8.022;2023-08-20T03:44:01;23.63;;;20.00;;
5821;SDS011;2937;48.562;8.022;2023-08-20T03:48:56;27.30;;;19.90;;
5821;SDS011;2937;48.562;8.022;2023-08-20T03:53:49;25.73;;;21.50;;
5821;SDS011;2937;48.562;8.022;2023-08-20T03:58:42;24.90;;;21.60;;
5821;SDS011;2937;48.562;8.022;2023-08-20T04:03:34;32.87;;;23.93;;
5821;SDS011;2937;48.562;8.022;2023-08-20T04:08:28;26.87;;;23.97;;
5821;SDS011;2937;48.562;8.022;2023-08-20T04:13:21;27.50;;;23.63;;
5821;SDS011;2937;48.562;8.022;2023-08-20T04:18:14;30.00;;;24.20;;
5821;SDS011;2937;48.562;8.022;2023-08-20T04:23:07;31.57;;;22.90;;
5821;SDS011;2937;48.562;8.022;2023-08-20T04:28:01;36.83;;;26.10;;
5821;SDS011;2937;48.562;8.022;2023-08-20T04:32:54;33.20;;;25.30;;
5821;SDS011;2937;48.562;8.022;2023-08-20T04:37:48;42.03;;;28.80;;
5821;SDS011;2937;48.562;8.022;2023-08-20T04:42:40;40.80;;;29.20;;
5821;SDS011;2937;48.562;8.022;2023-08-20T04:47:35;30.67;;;25.23;;
5821;SDS011;2937;48.562;8.022;2023-08-20T04:52:28;32.17;;;24.00;;
5821;SDS011;2937;48.562;8.022;2023-08-20T04:57:21;25.23;;;21.27;;
5821;SDS011;2937;48.562;8.022;2023-08-20T05:02:14;26.33;;;20.43;;
5821;SDS011;2937;48.562;8.022;2023-08-20T05:07:18;20.53;;;18.33;;
5821;SDS011;2937;48.562;8.022;2023-08-20T05:12:10;20.43;;;18.23;;
5821;SDS011;2937;48.562;8.022;2023-08-20T05:17:03;18.30;;;16.40;;
5821;SDS011;2937;48.562;8.022;2023-08-20T05:21:57;17.73;;;15.93;;
5821;SDS011;2937;48.562;8.022;2023-08-20T05:27:05;16.70;;;15.00;;
5821;SDS011;2937;48.562;8.022;2023-08-20T05:31:58;16.27;;;14.57;;
5821;SDS011;2937;48.562;8.022;2023-08-20T05:36:50;15.70;;;13.83;;
5821;SDS011;2937;48.562;8.022;2023-08-20T05:41:44;16.70;;;14.77;;
5821;SDS011;2937;48.562;8.022;2023-08-20T05:46:38;19.13;;;14.90;;
5821;SDS011;2937;48.562;8.022;2023-08-20T05:51:32;18.10;;;15.67;;
5821;SDS011;2937;48.562;8.022;2023-08-20T05:56:24;18.57;;;15.30;;
5821;SDS011;2937;48.562;8.022;2023-08-20T06:01:17;18.70;;;16.50;;
5821;SDS011;2937;48.562;8.022;2023-08-20T06:06:11;16.93;;;15.10;;
5821;SDS011;2937;48.562;8.022;2023-08-20T06:11:04;18.80;;;16.63;;
5821;SDS011;2937;48.562;8.022;2023-08-20T06:15:57;17.20;;;15.40;;
5821;SDS011;2937;48.562;8.022;2023-08-20T06:20:49;20.17;;;17.63;;
5821;SDS011;2937;48.562;8.022;2023-08-20T06:25:43;18.33;;;16.00;;
5821;SDS011;2937;48.562;8.022;2023-08-20T06:30:36;24.23;;;19.20;;
5821;SDS011;2937;48.562;8.022;2023-08-20T06:35:29;20.53;;;18.33;;
5821;SDS011;2937;48.562;8.022;2023-08-20T06:40:21;19.47;;;17.43;;
5821;SDS011;2937;48.562;8.022;2023-08-20T06:45:15;20.30;;;16.27;;
5821;SDS011;2937;48.562;8.022;2023-08-20T06:50:09;23.70;;;17.70;;
5821;SDS011;2937;48.562;8.022;2023-08-20T06:55:01;20.20;;;17.80;;
5821;SDS011;2937;48.562;8.022;2023-08-20T06:59:54;22.23;;;18.47;;
5821;SDS011;2937;48.562;8.022;2023-08-20T07:04:48;19.37;;;17.37;;
5821;SDS011;2937;48.562;8.022;2023-08-20T07:09:41;22.70;;;17.77;;
5821;SDS011;2937;48.562;8.022;2023-08-20T07:14:33;19.70;;;17.57;;
5821;SDS011;2937;48.562;8.022;2023-08-20T07:19:26;19.97;;;17.20;;
5821;SDS011;2937;48.562;8.022;2023-08-20T07:24:20;18.90;;;16.90;;
5821;SDS011;2937;48.562;8.022;2023-08-20T07:29:16;19.97;;;17.00;;
5821;SDS011;2937;48.562;8.022;2023-08-20T07:34:09;18.60;;;16.80;;
5821;SDS011;2937;48.562;8.022;2023-08-20T07:39:03;19.43;;;17.03;;
5821;SDS011;2937;48.562;8.022;2023-08-20T07:43:57;18.60;;;15.60;;
5821;SDS011;2937;48.562;8.022;2023-08-20T07:48:50;19.77;;;17.47;;
5821;SDS011;2937;48.562;8.022;2023-08-20T07:53:43;21.43;;;16.10;;
5821;SDS011;2937;48.562;8.022;2023-08-20T07:58:36;17.30;;;15.60;;
5821;SDS011;2937;48.562;8.022;2023-08-20T08:03:30;17.60;;;15.80;;
5821;SDS011;2937;48.562;8.022;2023-08-20T08:08:23;15.77;;;14.17;;
5821;SDS011;2937;48.562;8.022;2023-08-20T08:13:19;18.03;;;16.20;;
5821;SDS011;2937;48.562;8.022;2023-08-20T08:18:12;16.00;;;14.40;;
5821;SDS011;2937;48.562;8.022;2023-08-20T08:23:06;15.77;;;14.10;;
5821;SDS011;2937;48.562;8.022;2023-08-20T08:27:58;17.50;;;14.50;;
5821;SDS011;2937;48.562;8.022;2023-08-20T08:32:52;15.30;;;13.30;;
5821;SDS011;2937;48.562;8.022;2023-08-20T08:37:45;15.60;;;12.50;;
5821;SDS011;2937;48.562;8.022;2023-08-20T08:42:38;16.20;;;11.97;;
5821;SDS011;2937;48.562;8.022;2023-08-20T08:47:32;14.30;;;12.53;;
5821;SDS011;2937;48.562;8.022;2023-08-20T08:52:26;20.77;;;11.63;;
5821;SDS011;2937;48.562;8.022;2023-08-20T08:57:19;14.23;;;12.93;;
5821;SDS011;2937;48.562;8.022;2023-08-20T09:02:13;15.23;;;11.50;;
5821;SDS011;2937;48.562;8.022;2023-08-20T09:07:05;15.17;;;11.60;;
5821;SDS011;2937;48.562;8.022;2023-08-20T09:12:03;13.90;;;12.53;;
5821;SDS011;2937;48.562;8.022;2023-08-20T09:17:04;17.90;;;11.83;;
5821;SDS011;2937;48.562;8.022;2023-08-20T09:21:59;12.30;;;11.20;;
5821;SDS011;2937;48.562;8.022;2023-08-20T09:26:55;12.50;;;11.30;;
5821;SDS011;2937;48.562;8.022;2023-08-20T09:31:49;14.70;;;12.47;;
5821;SDS011;2937;48.562;8.022;2023-08-20T09:36:41;14.30;;;11.50;;
5821;SDS011;2937;48.562;8.022;2023-08-20T09:41:36;12.47;;;10.70;;
5821;SDS011;2937;48.562;8.022;2023-08-20T09:46:31;12.13;;;11.00;;
5821;SDS011;2937;48.562;8.022;2023-08-20T09:51:24;14.07;;;12.67;;
5821;SDS011;2937;48.562;8.022;2023-08-20T09:56:19;12.20;;;10.97;;
5821;SDS011;2937;48.562;8.022;2023-08-20T10:01:15;13.17;;;10.93;;
5821;SDS011;2937;48.562;8.022;2023-08-20T10:06:08;11.90;;;10.80;;
5821;SDS011;2937;48.562;8.022;2023-08-20T10:11:01;12.20;;;10.90;;
5821;SDS011;2937;48.562;8.022;2023-08-20T10:15:54;13.03;;;11.20;;
5821;SDS011;2937;48.562;8.022;2023-08-20T10:20:48;13.33;;;12.03;;
5821;SDS011;2937;48.562;8.022;2023-08-20T10:25:42;12.10;;;10.90;;
5821;SDS011;2937;48.562;8.022;2023-08-20T10:30:35;13.17;;;11.77;;
5821;SDS011;2937;48.562;8.022;2023-08-20T10:35:28;16.40;;;12.23;;
5821;SDS011;2937;48.562;8.022;2023-08-20T10:45:30;16.50;;;12.17;;
5821;SDS011;2937;48.562;8.022;2023-08-20T10:50:23;13.00;;;11.80;;
5821;SDS011;2937;48.562;8.022;2023-08-20T10:55:15;12.33;;;11.13;;
5821;SDS011;2937;48.562;8.022;2023-08-20T11:00:09;15.17;;;11.63;;
5821;SDS011;2937;48.562;8.022;2023-08-20T11:05:04;14.57;;;12.07;;
5821;SDS011;2937;48.562;8.022;2023-08-20T11:10:08;17.87;;;10.70;;
5821;SDS011;2937;48.562;8.022;2023-08-20T11:15:00;12.67;;;11.47;;
5821;SDS011;2937;48.562;8.022;2023-08-20T11:19:54;15.20;;;11.00;;
5821;SDS011;2937;48.562;8.022;2023-08-20T11:25:00;15.23;;;11.70;;
5821;SDS011;2937;48.562;8.022;2023-08-20T11:29:53;15.67;;;11.90;;
5821;SDS011;2937;48.562;8.022;2023-08-20T11:34:47;15.37;;;11.90;;
5821;SDS011;2937;48.562;8.022;2023-08-20T11:39:40;13.00;;;11.60;;
5821;SDS011;2937;48.562;8.022;2023-08-20T11:44:43;12.00;;;10.80;;
5821;SDS011;2937;48.562;8.022;2023-08-20T11:49:36;11.80;;;10.47;;
5821;SDS011;2937;48.562;8.022;2023-08-20T11:54:31;11.77;;;10.67;;
5821;SDS011;2937;48.562;8.022;2023-08-20T11:59:24;11.43;;;10.40;;
5821;SDS011;2937;48.562;8.022;2023-08-20T12:04:18;11.83;;;10.57;;
5821;SDS011;2937;48.562;8.022;2023-08-20T12:09:19;12.70;;;10.87;;
5821;SDS011;2937;48.562;8.022;2023-08-20T12:14:13;15.47;;;10.57;;
5821;SDS011;2937;48.562;8.022;2023-08-20T12:19:05;11.67;;;10.57;;
5821;SDS011;2937;48.562;8.022;2023-08-20T12:23:59;11.27;;;10.17;;
5821;SDS011;2937;48.562;8.022;2023-08-20T12:28:52;11.23;;;9.83;;
5821;SDS011;2937;48.562;8.022;2023-08-20T12:33:47;11.90;;;10.20;;
5821;SDS011;2937;48.562;8.022;2023-08-20T12:38:40;17.20;;;10.10;;
5821;SDS011;2937;48.562;8.022;2023-08-20T12:43:34;10.90;;;9.90;;
5821;SDS011;2937;48.562;8.022;2023-08-20T12:48:27;10.90;;;9.90;;
5821;SDS011;2937;48.562;8.022;2023-08-20T12:53:20;11.67;;;10.20;;
5821;SDS011;2937;48.562;8.022;2023-08-20T12:58:12;11.00;;;9.90;;
5821;SDS011;2937;48.562;8.022;2023-08-20T13:03:07;12.23;;;10.23;;
5821;SDS011;2937;48.562;8.022;2023-08-20T13:08:01;12.50;;;9.30;;
5821;SDS011;2937;48.562;8.022;2023-08-20T13:12:54;12.00;;;10.10;;
5821;SDS011;2937;48.562;8.022;2023-08-20T13:17:47;10.60;;;9.37;;
5821;SDS011;2937;48.562;8.022;2023-08-20T13:22:41;10.80;;;9.33;;
5821;SDS011;2937;48.562;8.022;2023-08-20T13:27:34;10.67;;;9.57;;
5821;SDS011;2937;48.562;8.022;2023-08-20T13:32:27;10.40;;;9.33;;
5821;SDS011;2937;48.562;8.022;2023-08-20T13:37:20;11.57;;;9.60;;
5821;SDS011;2937;48.562;8.022;2023-08-20T13:42:14;11.93;;;9.43;;
5821;SDS011;2937;48.562;8.022;2023-08-20T13:47:07;9.80;;;8.90;;
5821;SDS011;2937;48.562;8.022;2023-08-20T13:52:00;11.10;;;9.87;;
5821;SDS011;2937;48.562;8.022;2023-08-20T13:56:52;10.37;;;9.47;;
5821;SDS011;2937;48.562;8.022;2023-08-20T14:01:46;12.20;;;8.77;;
5821;SDS011;2937;48.562;8.022;2023-08-20T14:06:39;11.87;;;8.60;;
5821;SDS011;2937;48.562;8.022;2023-08-20T14:11:32;10.63;;;9.63;;
5821;SDS011;2937;48.562;8.022;2023-08-20T14:16:25;11.97;;;9.13;;
5821;SDS011;2937;48.562;8.022;2023-08-20T14:21:19;11.20;;;8.80;;
5821;SDS011;2937;48.562;8.022;2023-08-20T14:26:12;13.20;;;9.00;;
5821;SDS011;2937;48.562;8.022;2023-08-20T14:31:04;9.53;;;8.60;;
5821;SDS011;2937;48.562;8.022;2023-08-20T14:35:57;10.53;;;8.33;;
5821;SDS011;2937;48.562;8.022;2023-08-20T14:40:51;12.13;;;8.50;;
5821;SDS011;2937;48.562;8.022;2023-08-20T14:45:44;9.30;;;8.10;;
5821;SDS011;2937;48.562;8.022;2023-08-20T14:50:37;9.47;;;8.47;;
5821;SDS011;2937;48.562;8.022;2023-08-20T14:55:30;11.60;;;9.40;;
5821;SDS011;2937;48.562;8.022;2023-08-20T15:00:24;13.13;;;8.27;;
5821;SDS011;2937;48.562;8.022;2023-08-20T15:05:17;9.87;;;8.13;;
5821;SDS011;2937;48.562;8.022;2023-08-20T15:10:10;11.60;;;8.33;;
5821;SDS011;2937;48.562;8.022;2023-08-20T15:15:03;9.33;;;7.70;;
5821;SDS011;2937;48.562;8.022;2023-08-20T15:19:57;8.57;;;7.80;;
5821;SDS011;2937;48.562;8.022;2023-08-20T15:24:50;9.43;;;7.90;;
5821;SDS011;2937;48.562;8.022;2023-08-20T15:29:43;9.87;;;8.20;;
5821;SDS011;2937;48.562;8.022;2023-08-20T15:34:36;8.30;;;7.40;;
5821;SDS011;2937;48.562;8.022;2023-08-20T15:39:31;8.87;;;8.03;;
5821;SDS011;2937;48.562;8.022;2023-08-20T15:44:24;10.33;;;7.60;;
5821;SDS011;2937;48.562;8.022;2023-08-20T15:49:17;13.40;;;7.97;;
5821;SDS011;2937;48.562;8.022;2023-08-20T15:54:09;8.97;;;7.80;;
5821;SDS011;2937;48.562;8.022;2023-08-20T15:59:03;9.97;;;7.50;;
5821;SDS011;2937;48.562;8.022;2023-08-20T16:03:56;8.97;;;8.07;;
5821;SDS011;2937;48.562;8.022;2023-08-20T16:08:49;8.53;;;7.20;;
5821;SDS011;2937;48.562;8.022;2023-08-20T16:13:41;8.40;;;7.03;;
5821;SDS011;2937;48.562;8.022;2023-08-20T16:18:38;8.03;;;7.13;;
5821;SDS011;2937;48.562;8.022;2023-08-20T16:23:30;9.43;;;6.97;;
5821;SDS011;2937;48.562;8.022;2023-08-20T16:28:23;11.40;;;7.13;;
5821;SDS011;2937;48.562;8.022;2023-08-20T16:33:16;8.57;;;6.60;;
5821;SDS011;2937;48.562;8.022;2023-08-20T16:38:10;10.73;;;7.20;;
5821;SDS011;2937;48.562;8.022;2023-08-20T16:43:03;9.00;;;6.17;;
5821;SDS011;2937;48.562;8.022;2023-08-20T16:47:57;7.03;;;6.40;;
5821;SDS011;2937;48.562;8.022;2023-08-20T16:52:50;7.70;;;6.30;;
5821;SDS011;2937;48.562;8.022;2023-08-20T16:57:44;9.13;;;6.07;;
5821;SDS011;2937;48.562;8.022;2023-08-20T17:02:37;14.20;;;6.50;;
5821;SDS011;2937;48.562;8.022;2023-08-20T17:07:30;7.60;;;5.80;;
5821;SDS011;2937;48.562;8.022;2023-08-20T17:12:23;6.50;;;5.80;;
5821;SDS011;2937;48.562;8.022;2023-08-20T17:17:17;6.57;;;5.97;;
5821;SDS011;2937;48.562;8.022;2023-08-20T17:22:10;9.20;;;6.70;;
5821;SDS011;2937;48.562;8.022;2023-08-20T17:27:02;9.90;;;6.83;;
5821;SDS011;2937;48.562;8.022;2023-08-20T17:31:55;10.20;;;6.97;;
5821;SDS011;2937;48.562;8.022;2023-08-20T17:36:49;9.67;;;6.90;;
5821;SDS011;2937;48.562;8.022;2023-08-20T17:41:43;8.30;;;6.73;;
5821;SDS011;2937;48.562;8.022;2023-08-20T17:46:42;11.67;;;7.07;;
5821;SDS011;2937;48.562;8.022;2023-08-20T17:51:35;8.87;;;6.70;;
5821;SDS011;2937;48.562;8.022;2023-08-20T17:56:29;8.77;;;7.33;;
5821;SDS011;2937;48.562;8.022;2023-08-20T18:01:21;8.27;;;6.53;;
5821;SDS011;2937;48.562;8.022;2023-08-20T18:06:14;9.53;;;7.00;;
5821;SDS011;2937;48.562;8.022;2023-08-20T18:11:07;8.73;;;6.93;;
5821;SDS011;2937;48.562;8.022;2023-08-20T18:16:02;11.97;;;6.77;;
5821;SDS011;2937;48.562;8.022;2023-08-20T18:20:54;9.47;;;8.17;;
5821;SDS011;2937;48.562;8.022;2023-08-20T18:25:47;8.53;;;7.10;;
5821;SDS011;2937;48.562;8.022;2023-08-20T18:30:40;9.43;;;7.13;;
5821;SDS011;2937;48.562;8.022;2023-08-20T18:35:34;11.57;;;7.47;;
5821;SDS011;2937;48.562;8.022;2023-08-20T18:40:27;12.07;;;7.07;;
5821;SDS011;2937;48.562;8.022;2023-08-20T18:45:20;11.93;;;8.07;;
5821;SDS011;2937;48.562;8.022;2023-08-20T18:50:12;12.47;;;7.97;;
5821;SDS011;2937;48.562;8.022;2023-08-20T18:55:07;8.60;;;7.70;;
5821;SDS011;2937;48.562;8.022;2023-08-20T19:00:00;9.70;;;8.20;;
5821;SDS011;2937;48.562;8.022;2023-08-20T19:04:53;13.87;;;9.23;;
5821;SDS011;2937;48.562;8.022;2023-08-20T19:09:46;10.83;;;9.73;;
5821;SDS011;2937;48.562;8.022;2023-08-20T19:14:40;13.13;;;9.93;;
5821;SDS011;2937;48.562;8.022;2023-08-20T19:19:32;11.87;;;9.90;;
5821;SDS011;2937;48.562;8.022;2023-08-20T19:24:25;14.57;;;10.20;;
5821;SDS011;2937;48.562;8.022;2023-08-20T19:29:18;13.80;;;10.93;;
5821;SDS011;2937;48.562;8.022;2023-08-20T19:34:13;13.60;;;11.03;;
5821;SDS011;2937;48.562;8.022;2023-08-20T19:39:06;12.23;;;10.53;;
5821;SDS011;2937;48.562;8.022;2023-08-20T19:43:59;12.80;;;10.37;;
5821;SDS011;2937;48.562;8.022;2023-08-20T19:48:51;12.30;;;10.40;;
5821;SDS011;2937;48.562;8.022;2023-08-20T19:53:45;12.40;;;11.10;;
5821;SDS011;2937;48.562;8.022;2023-08-20T19:58:38;13.57;;;11.43;;
5821;SDS011;2937;48.562;8.022;2023-08-20T20:03:31;13.17;;;11.67;;
5821;SDS011;2937;48.562;8.022;2023-08-20T20:08:24;13.90;;;12.00;;
5821;SDS011;2937;48.562;8.022;2023-08-20T20:13:18;12.43;;;11.13;;
5821;SDS011;2937;48.562;8.022;2023-08-20T20:18:11;14.87;;;10.90;;
5821;SDS011;2937;48.562;8.022;2023-08-20T20:23:03;14.40;;;12.03;;
5821;SDS011;2937;48.562;8.022;2023-08-20T20:27:57;13.87;;;12.30;;
5821;SDS011;2937;48.562;8.022;2023-08-20T20:32:51;14.20;;;12.53;;
5821;SDS011;2937;48.562;8.022;2023-08-20T20:37:44;14.47;;;12.37;;
5821;SDS011;2937;48.562;8.022;2023-08-20T20:42:37;14.03;;;12.30;;
5821;SDS011;2937;48.562;8.022;2023-08-20T20:47:30;15.73;;;12.67;;
5821;SDS011;2937;48.562;8.022;2023-08-20T20:52:24;15.67;;;12.70;;
5821;SDS011;2937;48.562;8.022;2023-08-20T20:57:17;13.67;;;12.00;;
5821;SDS011;2937;48.562;8.022;2023-08-20T21:02:19;15.90;;;12.33;;
5821;SDS011;2937;48.562;8.022;2023-08-20T21:07:12;17.97;;;13.37;;
5821;SDS011;2937;48.562;8.022;2023-08-20T21:12:06;18.40;;;13.43;;
5821;SDS011;2937;48.562;8.022;2023-08-20T21:16:59;16.17;;;13.73;;
5821;SDS011;2937;48.562;8.022;2023-08-20T21:21:54;17.83;;;13.83;;
5821;SDS011;2937;48.562;8.022;2023-08-20T21:26:47;19.10;;;12.93;;
5821;SDS011;2937;48.562;8.022;2023-08-20T21:31:41;15.20;;;13.07;;
5821;SDS011;2937;48.562;8.022;2023-08-20T21:36:33;16.83;;;13.97;;
5821;SDS011;2937;48.562;8.022;2023-08-20T21:41:26;18.10;;;13.23;;
5821;SDS011;2937;48.562;8.022;2023-08-20T21:46:22;17.33;;;14.37;;
5821;SDS011;2937;48.562;8.022;2023-08-20T21:51:17;18.60;;;13.40;;
5821;SDS011;2937;48.562;8.022;2023-08-20T21:56:09;21.43;;;14.27;;
5821;SDS011;2937;48.562;8.022;2023-08-20T22:01:02;18.10;;;14.27;;
5821;SDS011;2937;48.562;8.022;2023-08-20T22:05:55;15.13;;;13.60;;
5821;SDS011;2937;48.562;8.022;2023-08-20T22:10:49;16.53;;;14.17;;
5821;SDS011;2937;48.562;8.022;2023-08-20T22:15:42;15.10;;;13.60;;
5821;SDS011;2937;48.562;8.022;2023-08-20T22:20:35;15.97;;;14.43;;
5821;SDS011;2937;48.562;8.022;2023-08-20T22:25:27;16.77;;;15.00;;
5821;SDS011;2937;48.562;8.022;2023-08-20T22:30:22;16.10;;;13.93;;
5821;SDS011;2937;48.562;8.022;2023-08-20T22:35:14;16.80;;;15.00;;
5821;SDS011;2937;48.562;8.022;2023-08-20T22:40:07;20.43;;;15.30;;
5821;SDS011;2937;48.562;8.022;2023-08-20T22:45:00;20.47;;;14.47;;
5821;SDS011;2937;48.562;8.022;2023-08-20T22:49:54;16.30;;;14.60;;
5821;SDS011;2937;48.562;8.022;2023-08-20T22:54:47;17.00;;;14.97;;
5821;SDS011;2937;48.562;8.022;2023-08-20T22:59:40;19.93;;;16.23;;
5821;SDS011;2937;48.562;8.022;2023-08-20T23:04:32;17.53;;;15.73;;
5821;SDS011;2937;48.562;8.022;2023-08-20T23:09:26;17.13;;;15.37;;
5821;SDS011;2937;48.562;8.022;2023-08-20T23:14:19;19.53;;;15.43;;
5821;SDS011;2937;48.562;8.022;2023-08-20T23:19:12;17.87;;;15.93;;
5821;SDS011;2937;48.562;8.022;2023-08-20T23:24:04;21.40;;;15.87;;
5821;SDS011;2937;48.562;8.022;2023-08-20T23:28:58;20.60;;;16.20;;
5821;SDS011;2937;48.562;8.022;2023-08-20T23:33:51;16.40;;;14.70;;
5821;SDS011;2937;48.562;8.022;2023-08-20T23:38:44;17.50;;;15.70;;
5821;SDS011;2937;48.562;8.022;2023-08-20T23:43:37;18.13;;;15.60;;
5821;SDS011;2937;48.562;8.022;2023-08-20T23:48:31;16.43;;;14.53;;
5821;SDS011;2937;48.562;8.022;2023-08-20T23:53:25;18.00;;;16.20;;
5821;SDS011;2937;48.562;8.022;2023-08-20T23:58:19;21.47;;;16.50;;
